createdAt,value
2023-05-12T00:01:15.165Z,101291.56
2023-05-12T00:04:03.155Z,101307.94
2023-05-12T00:06:49.957Z,101311.13
2023-05-12T00:09:37.070Z,101307.22
2023-05-12T00:12:23.549Z,101312.53
2023-05-12T00:15:11.291Z,101307.97
2023-05-12T00:17:58.605Z,101309.66
2023-05-12T00:20:46.489Z,101303.50
2023-05-12T00:23:33.185Z,101302.13
2023-05-12T00:26:21.258Z,101296.88
2023-05-12T00:29:08.349Z,101310.84
2023-05-12T00:31:57.835Z,101306.28
2023-05-12T00:34:44.499Z,101302.63
2023-05-12T00:37:35.132Z,101310.81
2023-05-12T00:40:22.024Z,101311.03
2023-05-12T00:43:08.888Z,101308.78
2023-05-12T00:45:55.983Z,101310.81
2023-05-12T00:48:42.807Z,101311.16
2023-05-12T00:51:29.685Z,101307.97
2023-05-12T00:54:18.383Z,101311.25
2023-05-12T00:57:05.758Z,101309.56
2023-05-12T00:59:52.960Z,101306.56
2023-05-12T01:02:40.330Z,101308.47
2023-05-12T01:05:34.392Z,101320.66
2023-05-12T01:08:21.656Z,101312.56
2023-05-12T01:11:09.809Z,101321.09
2023-05-12T01:13:57.076Z,101322.22
2023-05-12T01:16:51.723Z,101320.81
2023-05-12T01:19:43.164Z,101321.03
2023-05-12T01:22:33.889Z,101320.81
2023-05-12T01:25:24.898Z,101318.59
2023-05-12T01:28:15.273Z,101327.38
2023-05-12T01:31:02.479Z,101330.31
2023-05-12T01:33:49.301Z,101330.91
2023-05-12T01:36:36.235Z,101326.03
2023-05-12T01:39:23.129Z,101332.59
2023-05-12T01:42:09.957Z,101321.41
2023-05-12T01:44:58.630Z,101330.34
2023-05-12T01:47:47.103Z,101329.53
2023-05-12T01:50:34.121Z,101333.28
2023-05-12T01:53:21.566Z,101333.63
2023-05-12T01:56:08.571Z,101336.44
2023-05-12T01:58:55.963Z,101329.38
2023-05-12T02:01:44.217Z,101331.31
2023-05-12T02:04:34.712Z,101332.47
2023-05-12T02:07:21.740Z,101336.44
2023-05-12T02:10:09.744Z,101336.63
2023-05-12T02:12:56.252Z,101345.72
2023-05-12T02:15:43.511Z,101332.03
2023-05-12T02:18:31.897Z,101343.44
2023-05-12T02:21:18.887Z,101340.81
2023-05-12T02:24:16.983Z,101351.72
2023-05-12T02:27:06.509Z,101345.53
2023-05-12T02:29:53.181Z,101350.19
2023-05-12T02:32:40.236Z,101355.63
2023-05-12T02:35:31.755Z,101356.63
2023-05-12T02:38:19.207Z,101359.22
2023-05-12T02:41:09.112Z,101360.09
2023-05-12T02:44:15.022Z,101355.91
2023-05-12T02:47:05.512Z,101360.63
2023-05-12T02:49:56.701Z,101371.06
2023-05-12T02:52:54.900Z,101362.31
2023-05-12T02:55:42.105Z,101356.09
2023-05-12T02:58:29.086Z,101356.38
2023-05-12T03:01:16.228Z,101352.19
2023-05-12T03:04:03.000Z,101355.06
2023-05-12T03:06:49.868Z,101352.53
2023-05-12T03:09:40.794Z,101359.66
2023-05-12T03:12:29.356Z,101361.38
2023-05-12T03:15:16.683Z,101354.63
2023-05-12T03:18:03.658Z,101369.69
2023-05-12T03:20:51.165Z,101358.16
2023-05-12T03:23:37.949Z,101345.94
2023-05-12T03:26:26.237Z,101360.78
2023-05-12T03:29:12.941Z,101363.44
2023-05-12T03:31:59.856Z,101362.81
2023-05-12T03:34:46.667Z,101366.09
2023-05-12T03:37:33.440Z,101368.75
2023-05-12T03:40:20.618Z,101371.41
2023-05-12T03:43:11.694Z,101375.91
2023-05-12T03:46:00.150Z,101292.47
2023-05-12T03:48:47.248Z,101374.38
2023-05-12T03:51:33.783Z,101372.75
2023-05-12T03:54:25.178Z,101380.28
2023-05-12T03:57:13.605Z,101373.19
2023-05-12T04:00:02.269Z,101379.81
2023-05-12T04:03:02.205Z,101385.28
2023-05-12T04:05:50.215Z,101377.34
2023-05-12T04:08:36.606Z,101379.00
2023-05-12T04:11:23.692Z,101379.91
2023-05-12T04:14:10.572Z,101380.59
2023-05-12T04:16:58.861Z,101387.19
2023-05-12T04:19:47.612Z,101384.25
2023-05-12T04:22:34.524Z,101389.59
2023-05-12T04:25:23.414Z,101388.53
2023-05-12T04:28:12.077Z,101390.53
2023-05-12T04:31:05.541Z,101392.03
2023-05-12T04:33:56.804Z,101386.66
2023-05-12T04:36:45.112Z,101396.03
2023-05-12T04:39:32.965Z,101394.75
2023-05-12T04:42:22.733Z,101401.03
2023-05-12T04:45:19.439Z,101395.72
2023-05-12T04:48:08.983Z,101401.75
2023-05-12T04:50:59.923Z,101400.41
2023-05-12T04:53:46.529Z,101405.72
2023-05-12T04:56:39.318Z,101410.16
2023-05-12T04:59:29.921Z,101405.31
2023-05-12T05:02:21.772Z,101405.59
2023-05-12T05:05:10.094Z,101405.09
2023-05-12T05:08:05.302Z,101414.34
2023-05-12T05:10:56.308Z,101416.91
2023-05-12T05:13:45.494Z,101411.56
2023-05-12T05:16:36.768Z,101420.47
2023-05-12T05:19:40.845Z,101418.06
2023-05-12T05:22:34.786Z,101418.06
2023-05-12T05:25:27.287Z,101416.84
2023-05-12T05:28:17.343Z,101421.94
2023-05-12T05:31:06.285Z,101426.41
2023-05-12T05:33:55.131Z,101423.09
2023-05-12T05:36:48.133Z,101428.47
2023-05-12T05:39:38.797Z,101425.59
2023-05-12T05:42:29.072Z,101431.25
2023-05-12T05:45:16.059Z,101424.31
2023-05-12T05:48:02.581Z,101430.25
2023-05-12T05:50:50.166Z,101430.22
2023-05-12T05:53:37.428Z,101428.34
2023-05-12T05:56:24.298Z,101430.59
2023-05-12T05:59:22.454Z,101438.69
2023-05-12T06:02:11.094Z,101441.19
2023-05-12T06:05:00.226Z,101448.34
2023-05-12T06:07:49.604Z,101448.38
2023-05-12T06:10:36.395Z,101444.38
2023-05-12T06:13:23.276Z,101443.44
2023-05-12T06:16:11.481Z,101442.53
2023-05-12T06:18:59.248Z,101452.00
2023-05-12T06:21:46.067Z,101452.09
2023-05-12T06:24:32.909Z,101447.41
2023-05-12T06:27:19.832Z,101452.25
2023-05-12T06:30:10.569Z,101462.13
2023-05-12T06:32:59.606Z,101461.63
2023-05-12T06:35:57.114Z,101459.34
2023-05-12T06:38:46.070Z,101465.50
2023-05-12T06:41:33.752Z,101469.56
2023-05-12T06:44:20.622Z,101470.72
2023-05-12T06:47:11.673Z,101471.34
2023-05-12T06:50:05.293Z,101460.41
2023-05-12T06:52:52.402Z,101469.53
2023-05-12T06:55:41.837Z,101471.00
2023-05-12T06:58:28.347Z,101464.50
2023-05-12T07:01:15.120Z,101467.78
2023-05-12T07:04:02.008Z,101459.41
2023-05-12T07:06:52.646Z,101461.66
2023-05-12T07:09:40.670Z,101463.66
2023-05-12T07:12:29.638Z,101468.25
2023-05-12T07:15:18.896Z,101464.25
2023-05-12T07:18:08.927Z,101462.50
2023-05-12T07:20:55.893Z,101475.16
2023-05-12T07:23:44.070Z,101462.66
2023-05-12T07:26:30.799Z,101473.75
2023-05-12T07:29:17.805Z,101472.19
2023-05-12T07:32:04.465Z,101477.56
2023-05-12T07:34:51.122Z,101472.97
2023-05-12T07:37:38.001Z,101480.78
2023-05-12T07:40:26.325Z,101464.69
2023-05-12T07:43:13.176Z,101478.34
2023-05-12T07:46:03.640Z,101476.16
2023-05-12T07:48:53.447Z,101472.47
2023-05-12T07:51:40.378Z,101469.75
2023-05-12T07:54:27.366Z,101460.84
2023-05-12T07:57:15.446Z,101467.84
2023-05-12T08:00:04.949Z,101472.56
2023-05-12T08:02:59.377Z,101472.53
2023-05-12T08:05:46.496Z,101456.59
2023-05-12T08:08:33.462Z,101463.94
2023-05-12T08:11:20.312Z,101468.34
2023-05-12T08:14:08.331Z,101464.03
2023-05-12T08:16:55.097Z,101461.66
2023-05-12T08:19:42.080Z,101463.69
2023-05-12T08:22:31.073Z,101462.28
2023-05-12T08:25:18.131Z,101459.03
2023-05-12T08:28:05.030Z,101474.53
2023-05-12T08:30:53.313Z,101465.00
2023-05-12T08:33:39.969Z,101472.78
2023-05-12T08:36:27.447Z,101469.94
2023-05-12T08:39:14.399Z,101467.66
2023-05-12T08:42:13.581Z,101472.72
2023-05-12T08:45:01.234Z,101469.03
2023-05-12T08:47:52.436Z,101463.31
2023-05-12T08:50:40.902Z,101473.94
2023-05-12T08:53:34.110Z,101468.44
2023-05-12T08:59:13.988Z,101461.78
2023-05-12T09:02:04.582Z,101462.75
2023-05-12T09:04:55.016Z,101470.97
2023-05-12T09:07:44.883Z,101463.13
2023-05-12T09:10:35.482Z,101462.97
2023-05-12T09:13:29.065Z,101467.38
2023-05-12T09:16:21.122Z,101464.56
2023-05-12T09:19:07.873Z,101466.28
2023-05-12T09:21:59.505Z,101468.03
2023-05-12T09:24:48.398Z,101458.75
2023-05-12T09:27:37.080Z,101461.16
2023-05-12T09:30:38.497Z,101457.09
2023-05-12T09:33:27.460Z,101453.97
2023-05-12T09:36:19.708Z,101451.41
2023-05-12T09:39:12.142Z,101451.44
2023-05-12T09:42:01.236Z,101464.41
2023-05-12T09:44:50.094Z,101452.78
2023-05-12T09:47:40.308Z,101457.69
2023-05-12T09:50:30.620Z,101455.34
2023-05-12T09:53:23.087Z,101446.38
2023-05-12T09:56:19.862Z,101453.66
2023-05-12T09:59:06.885Z,101418.03
2023-05-12T10:02:05.882Z,101454.63
2023-05-12T10:04:59.902Z,101451.56
2023-05-12T10:07:55.883Z,101443.91
2023-05-12T10:10:45.534Z,101449.22
2023-05-12T10:13:40.681Z,101439.00
2023-05-12T10:16:30.630Z,101445.78
2023-05-12T10:19:21.186Z,101450.56
2023-05-12T10:22:16.010Z,101447.75
2023-05-12T10:25:06.015Z,101422.59
2023-05-12T10:27:54.247Z,101452.41
2023-05-12T10:30:47.215Z,101445.28
2023-05-12T10:33:34.361Z,101439.84
2023-05-12T10:36:23.843Z,101449.81
2023-05-12T10:39:25.007Z,101449.69
2023-05-12T10:42:14.048Z,101442.50
2023-05-12T10:45:08.288Z,101442.41
2023-05-12T10:48:07.099Z,101445.13
2023-05-12T10:50:56.523Z,101439.78
2023-05-12T10:53:52.584Z,101444.44
2023-05-12T10:56:50.078Z,101439.31
2023-05-12T11:00:01.668Z,101439.31
2023-05-12T11:03:42.368Z,101439.34
2023-05-12T11:07:07.868Z,101439.25
2023-05-12T11:13:34.453Z,101433.47
2023-05-12T11:16:59.154Z,101436.41
2023-05-12T11:19:58.378Z,101434.19
2023-05-12T11:22:49.019Z,101424.59
2023-05-12T11:25:49.545Z,101430.53
2023-05-12T11:28:42.811Z,101425.09
2023-05-12T11:31:35.217Z,101429.00
2023-05-12T11:34:28.497Z,101425.66
2023-05-12T11:37:22.695Z,101424.84
2023-05-12T11:40:18.854Z,101428.78
2023-05-12T11:43:18.925Z,101427.97
2023-05-12T11:46:09.158Z,101427.31
2023-05-12T11:48:57.359Z,101428.69
2023-05-12T11:51:44.926Z,101436.38
2023-05-12T11:54:33.219Z,101438.09
2023-05-12T11:57:36.085Z,101449.19
2023-05-12T12:00:29.581Z,101440.44
2023-05-12T12:03:32.986Z,101421.59
2023-05-12T12:06:23.046Z,101435.16
2023-05-12T12:09:13.024Z,101444.59
2023-05-12T12:12:04.083Z,101441.22
2023-05-12T12:14:52.991Z,101433.56
2023-05-12T12:17:40.506Z,101429.25
2023-05-12T12:20:30.268Z,101431.09
2023-05-12T12:26:22.686Z,101431.59
2023-05-12T12:29:13.416Z,101431.97
2023-05-12T12:32:02.428Z,101446.50
2023-05-12T12:34:49.544Z,101443.44
2023-05-12T12:37:40.462Z,101440.47
2023-05-12T12:40:27.056Z,101446.50
2023-05-12T12:43:14.131Z,101438.25
2023-05-12T12:46:04.759Z,101431.13
2023-05-12T12:48:53.599Z,101441.44
2023-05-12T12:51:46.129Z,101436.16
2023-05-12T12:54:37.097Z,101432.97
2023-05-12T12:57:23.903Z,101439.97
2023-05-12T13:00:12.078Z,101439.47
2023-05-12T13:03:02.376Z,101431.72
2023-05-12T13:05:51.208Z,101432.72
2023-05-12T13:08:39.331Z,101426.91
2023-05-12T13:11:28.974Z,101422.50
2023-05-12T13:14:16.161Z,101430.25
2023-05-12T13:17:02.937Z,101436.66
2023-05-12T13:19:52.804Z,101428.03
2023-05-12T13:22:42.025Z,101427.19
2023-05-12T13:25:34.421Z,101427.78
2023-05-12T13:28:28.588Z,101430.28
2023-05-12T13:31:17.821Z,101423.00
2023-05-12T13:34:05.534Z,101419.78
2023-05-12T13:36:53.845Z,101416.94
2023-05-12T13:39:42.900Z,101415.97
2023-05-12T13:42:31.830Z,101406.63
2023-05-12T13:45:21.666Z,101418.31
2023-05-12T13:48:11.103Z,101420.41
2023-05-12T13:51:01.243Z,101416.59
2023-05-12T13:53:59.133Z,101420.66
2023-05-12T13:56:45.875Z,101418.94
2023-05-12T13:59:35.078Z,101412.28
2023-05-12T14:02:23.981Z,101415.72
2023-05-12T14:05:11.017Z,101409.06
2023-05-12T14:07:59.581Z,101410.31
2023-05-12T14:10:50.280Z,101408.84
2023-05-12T14:13:37.458Z,101409.69
2023-05-12T14:16:26.748Z,101411.28
2023-05-12T14:19:14.405Z,101402.94
2023-05-12T14:22:03.166Z,101406.78
2023-05-12T14:24:54.887Z,101408.19
2023-05-12T14:27:42.847Z,101404.41
2023-05-12T14:30:32.084Z,101410.31
2023-05-12T14:33:21.627Z,101414.50
2023-05-12T14:36:11.383Z,101414.38
2023-05-12T14:38:59.464Z,101414.47
2023-05-12T14:41:48.636Z,101410.31
2023-05-12T14:44:39.362Z,101404.66
2023-05-12T14:47:26.307Z,101404.16
2023-05-12T14:50:13.708Z,101413.88
2023-05-12T14:53:01.410Z,101415.59
2023-05-12T14:55:48.589Z,101414.75
2023-05-12T14:58:35.158Z,101409.09
2023-05-12T15:01:26.208Z,101409.78
2023-05-12T15:04:15.733Z,101419.28
2023-05-12T15:07:02.549Z,101416.44
2023-05-12T15:09:52.187Z,101416.22
2023-05-12T15:12:38.659Z,101414.00
2023-05-12T15:15:25.520Z,101412.78
2023-05-12T15:18:18.658Z,101399.97
2023-05-12T15:21:08.849Z,101411.31
2023-05-12T15:23:57.010Z,101413.13
2023-05-12T15:26:46.017Z,101415.59
2023-05-12T15:29:35.183Z,101418.81
2023-05-12T15:32:22.957Z,101420.16
2023-05-12T15:35:19.037Z,101414.75
2023-05-12T15:38:10.996Z,101422.59
2023-05-12T15:40:57.454Z,101411.38
2023-05-12T15:43:44.644Z,101412.75
2023-05-12T15:46:33.949Z,101410.31
2023-05-12T15:49:23.335Z,101415.84
2023-05-12T15:52:13.688Z,101411.53
2023-05-12T15:55:05.450Z,101414.38
2023-05-12T15:57:54.768Z,101414.00
2023-05-12T16:00:45.947Z,101409.69
2023-05-12T16:03:34.849Z,101409.09
2023-05-12T16:06:24.540Z,101412.00
2023-05-12T16:09:13.746Z,101409.09
2023-05-12T16:12:03.776Z,101403.41
2023-05-12T16:14:54.428Z,101411.53
2023-05-12T16:17:41.980Z,101403.78
2023-05-12T16:20:29.188Z,101405.84
2023-05-12T16:23:16.557Z,101398.81
2023-05-12T16:26:13.547Z,101407.81
2023-05-12T16:29:02.636Z,101400.69
2023-05-12T16:31:52.894Z,101400.50
2023-05-12T16:37:32.316Z,101391.78
2023-05-12T16:40:19.222Z,101395.84
2023-05-12T16:43:09.503Z,101401.81
2023-05-12T16:46:05.691Z,101399.78
2023-05-12T16:48:54.952Z,101396.13
2023-05-12T16:51:44.836Z,101391.59
2023-05-12T16:54:32.955Z,101407.03
2023-05-12T16:57:21.132Z,101394.25
2023-05-12T17:00:15.446Z,101395.19
2023-05-12T17:03:03.729Z,101401.50
2023-05-12T17:05:52.968Z,101392.53
2023-05-12T17:08:39.848Z,101394.56
2023-05-12T17:11:27.504Z,101407.44
2023-05-12T17:14:14.901Z,101409.00
2023-05-12T17:17:08.715Z,101405.03
2023-05-12T17:20:04.479Z,101411.06
2023-05-12T17:23:05.595Z,101412.81
2023-05-12T17:25:55.404Z,101415.19
2023-05-12T17:28:45.557Z,101418.69
2023-05-12T17:31:33.217Z,101410.94
2023-05-12T17:34:24.505Z,101417.41
2023-05-12T17:37:26.497Z,101415.56
2023-05-12T17:40:38.093Z,101417.31
2023-05-12T17:43:25.546Z,101420.00
2023-05-12T17:46:12.406Z,101418.38
2023-05-12T17:49:01.565Z,101409.13
2023-05-12T17:51:53.214Z,101416.66
2023-05-12T17:54:47.647Z,101422.81
2023-05-12T17:58:14.090Z,101421.94
2023-05-12T18:01:08.452Z,101430.69
2023-05-12T18:04:07.747Z,101429.78
2023-05-12T18:07:01.162Z,101426.13
2023-05-12T18:09:51.410Z,101439.53
2023-05-12T18:12:41.239Z,101438.06
2023-05-12T18:15:30.250Z,101449.47
2023-05-12T18:18:19.389Z,101441.69
2023-05-12T18:21:06.725Z,101447.78
2023-05-12T18:23:55.014Z,101443.91
2023-05-12T18:26:43.350Z,101446.31
2023-05-12T18:29:29.791Z,101453.91
2023-05-12T18:32:18.959Z,101452.00
2023-05-12T18:35:06.217Z,101464.69
2023-05-12T18:37:55.625Z,101460.97
2023-05-12T18:40:44.091Z,101465.53
2023-05-12T18:43:33.066Z,101471.53
2023-05-12T18:46:22.411Z,101474.28
2023-05-12T18:49:14.627Z,101473.78
2023-05-12T18:52:03.638Z,101476.56
2023-05-12T18:54:50.485Z,101483.97
2023-05-12T18:57:40.936Z,101492.00
2023-05-12T19:00:32.143Z,101495.88
2023-05-12T19:03:18.861Z,101491.72
2023-05-12T19:06:05.818Z,101495.22
2023-05-12T19:08:52.830Z,101499.06
2023-05-12T19:11:39.511Z,101500.84
2023-05-12T19:14:55.602Z,101508.09
2023-05-12T19:17:42.306Z,101506.03
2023-05-12T19:20:32.974Z,101511.03
2023-05-12T19:23:22.052Z,101501.19
2023-05-12T19:26:19.694Z,101517.72
2023-05-12T19:29:20.037Z,101517.09
2023-05-12T19:32:09.130Z,101511.22
2023-05-12T19:35:00.424Z,101524.63
2023-05-12T19:37:49.533Z,101455.16
2023-05-12T19:40:36.635Z,101525.72
2023-05-12T19:43:23.397Z,101525.84
2023-05-12T19:46:13.179Z,101517.59
2023-05-12T19:49:02.868Z,101530.19
2023-05-12T19:51:53.925Z,101525.13
2023-05-12T19:54:42.750Z,101539.03
2023-05-12T19:57:29.550Z,101535.16
2023-05-12T20:00:19.350Z,101535.22
2023-05-12T20:03:06.765Z,101541.00
2023-05-12T20:06:01.543Z,101536.06
2023-05-12T20:08:48.088Z,101535.25
2023-05-12T20:11:37.482Z,101542.22
2023-05-12T20:14:24.331Z,101544.25
2023-05-12T20:17:17.103Z,101537.78
2023-05-12T20:20:05.541Z,101543.25
2023-05-12T20:22:58.838Z,101544.44
2023-05-12T20:25:48.668Z,101548.44
2023-05-12T20:28:35.711Z,101550.34
2023-05-12T20:31:24.772Z,101541.09
2023-05-12T20:34:11.243Z,101548.13
2023-05-12T20:36:58.231Z,101559.16
2023-05-12T20:39:47.055Z,101556.69
2023-05-12T20:42:36.807Z,101554.72
2023-05-12T20:45:23.899Z,101562.09
2023-05-12T20:48:15.095Z,101554.16
2023-05-12T20:51:11.556Z,101557.13
2023-05-12T20:54:00.492Z,101553.63
2023-05-12T20:56:53.071Z,101560.94
2023-05-12T20:59:42.065Z,101563.03
2023-05-12T21:02:31.886Z,101570.91
2023-05-12T21:05:21.980Z,101571.22
2023-05-12T21:08:08.807Z,101565.41
2023-05-12T21:10:55.824Z,101572.31
2023-05-12T21:14:03.912Z,101573.16
2023-05-12T21:16:50.479Z,101577.16
2023-05-12T21:19:39.629Z,101574.72
2023-05-12T21:22:30.373Z,101579.19
2023-05-12T21:25:17.837Z,101575.84
2023-05-12T21:28:05.070Z,101578.50
2023-05-12T21:30:58.733Z,101580.63
2023-05-12T21:33:48.261Z,101586.34
2023-05-12T21:36:34.820Z,101583.19
2023-05-12T21:39:22.123Z,101584.44
2023-05-12T21:42:09.704Z,101585.75
2023-05-12T21:44:59.058Z,101588.13
2023-05-12T21:47:53.329Z,101582.94
2023-05-12T21:50:40.382Z,101586.25
2023-05-12T21:53:29.064Z,101588.25
2023-05-12T21:56:17.266Z,101581.28
2023-05-12T21:59:06.473Z,101587.69
2023-05-12T22:01:53.183Z,101588.63
2023-05-12T22:04:41.457Z,101588.09
2023-05-12T22:07:32.372Z,101585.53
2023-05-12T22:10:19.230Z,101583.75
2023-05-12T22:13:08.470Z,101583.88
2023-05-12T22:15:55.185Z,101596.56
2023-05-12T22:18:45.916Z,101579.56
2023-05-12T22:21:36.118Z,101585.25
2023-05-12T22:24:24.705Z,101578.94
2023-05-12T22:27:11.308Z,101587.31
2023-05-12T22:29:58.189Z,101593.81
2023-05-12T22:32:45.093Z,101588.72
2023-05-12T22:35:32.863Z,101588.53
2023-05-12T22:38:23.910Z,101581.78
2023-05-12T22:41:11.401Z,101586.38
2023-05-12T22:43:59.002Z,101586.41
2023-05-12T22:46:48.051Z,101593.72
2023-05-12T22:49:36.860Z,101590.13
2023-05-12T22:52:25.600Z,101584.59
2023-05-12T22:55:23.348Z,101593.75
2023-05-12T22:58:14.570Z,101585.72
2023-05-12T23:01:02.304Z,101589.53
2023-05-12T23:03:56.890Z,101594.50
2023-05-12T23:06:43.537Z,101590.78
2023-05-12T23:09:37.842Z,101586.88
2023-05-12T23:12:28.048Z,101582.56
2023-05-12T23:15:17.292Z,101591.19
2023-05-12T23:18:08.944Z,101591.56
2023-05-12T23:20:58.278Z,101589.94
2023-05-12T23:23:44.885Z,101582.28
2023-05-12T23:26:32.948Z,101583.16
2023-05-12T23:29:23.405Z,101589.31
2023-05-12T23:32:10.945Z,101580.22
2023-05-12T23:34:58.890Z,101588.22
2023-05-12T23:37:47.796Z,101586.28
2023-05-12T23:40:41.721Z,101590.50
2023-05-12T23:43:28.272Z,101583.34
2023-05-12T23:46:18.407Z,101584.53
2023-05-12T23:49:15.514Z,101588.69
2023-05-12T23:52:04.888Z,101582.56
2023-05-12T23:54:51.525Z,101582.41
2023-05-12T23:57:43.882Z,101583.22
